Time;durP1;ratioP1;P1;durP2;ratioP2;P2;SDS_P1;SDS_P2;PMS_P1;PMS_P2;Temp;Humidity;BMP_temperature;BMP_pressure;BME280_temperature;BME280_humidity;BME280_pressure;Samples;Min_cycle;Max_cycle;Signal;HPM_P1;HPM_P2
2023/03/17 00:00:20;;;;;;;7.82;3.85;;;6.20;92.30;;;;;;5084717;28;20042;-76
2023/03/17 00:02:48;;;;;;;7.35;3.72;;;6.00;92.40;;;;;;5085848;28;20028;-76
2023/03/17 00:05:16;;;;;;;6.25;3.80;;;5.90;92.90;;;;;;5084162;28;20036;-75
2023/03/17 00:07:43;;;;;;;6.70;3.90;;;5.90;92.80;;;;;;5086989;28;20057;-76
2023/03/17 00:10:16;;;;;;;8.13;3.58;;;5.90;92.90;;;;;;5096988;28;20047;-76
2023/03/17 00:12:42;;;;;;;9.70;4.20;;;5.90;93.00;;;;;;5087588;28;20032;-76
2023/03/17 00:15:09;;;;;;;7.43;3.47;;;6.00;93.10;;;;;;5089173;28;20035;-76
2023/03/17 00:17:35;;;;;;;8.10;4.05;;;6.00;93.00;;;;;;5087133;28;20051;-76
2023/03/17 00:20:01;;;;;;;6.28;3.40;;;5.80;93.50;;;;;;5091494;28;20123;-76
2023/03/17 00:22:27;;;;;;;6.93;4.05;;;5.70;93.50;;;;;;5096025;28;20027;-76
2023/03/17 00:24:53;;;;;;;7.72;3.42;;;5.60;93.90;;;;;;5092074;28;20039;-76
2023/03/17 00:27:19;;;;;;;8.52;3.78;;;5.60;93.80;;;;;;5089287;28;20058;-76
2023/03/17 00:29:45;;;;;;;7.90;3.83;;;5.80;93.50;;;;;;5089211;28;20083;-75
2023/03/17 00:32:19;;;;;;;9.23;3.88;;;5.70;93.90;;;;;;5086577;28;20031;-76
2023/03/17 00:34:45;;;;;;;6.40;3.65;;;5.80;93.40;;;;;;5099877;28;20499;-76
2023/03/17 00:37:11;;;;;;;9.70;3.53;;;5.80;93.50;;;;;;5090740;28;20020;-76
2023/03/17 00:39:38;;;;;;;7.15;3.95;;;6.00;93.20;;;;;;5098045;28;20077;-76
2023/03/17 00:42:05;;;;;;;6.25;3.55;;;6.10;92.80;;;;;;5090936;28;20016;-76
2023/03/17 00:44:32;;;;;;;6.97;3.40;;;6.20;92.70;;;;;;5087175;28;20502;-76
2023/03/17 00:46:58;;;;;;;8.48;4.00;;;6.00;93.00;;;;;;5089889;28;20028;-76
2023/03/17 00:49:25;;;;;;;6.28;3.72;;;6.10;92.80;;;;;;5094697;28;20032;-76
2023/03/17 00:51:51;;;;;;;9.15;3.72;;;6.20;92.70;;;;;;5089275;28;20036;-76
2023/03/17 00:54:19;;;;;;;7.43;3.58;;;6.10;92.90;;;;;;5094168;28;20034;-76
2023/03/17 00:56:46;;;;;;;8.52;3.50;;;6.20;92.70;;;;;;5091380;28;20424;-76
2023/03/17 00:59:37;;;;;;;9.18;4.28;;;6.10;92.80;;;;;;5089627;28;20028;-76
2023/03/17 01:02:03;;;;;;;6.63;3.67;;;5.90;93.30;;;;;;5089751;28;20025;-76
2023/03/17 01:04:28;;;;;;;6.85;3.60;;;6.00;93.10;;;;;;5092987;28;20032;-76
2023/03/17 01:06:54;;;;;;;7.30;4.60;;;5.90;93.40;;;;;;5089278;28;20032;-76
2023/03/17 01:09:25;;;;;;;9.70;3.45;;;5.90;93.50;;;;;;5091939;28;20028;-75
2023/03/17 01:11:50;;;;;;;6.95;3.80;;;5.80;93.80;;;;;;5090302;28;20135;-76
2023/03/17 01:14:16;;;;;;;9.45;3.63;;;5.80;93.70;;;;;;5087595;28;20111;-76
2023/03/17 01:16:43;;;;;;;8.13;3.90;;;5.50;94.00;;;;;;5092919;28;20053;-76
2023/03/17 01:19:11;;;;;;;6.40;3.35;;;5.60;94.00;;;;;;5090868;28;20051;-76
2023/03/17 01:21:36;;;;;;;7.45;3.33;;;5.60;94.00;;;;;;5087690;28;20063;-75
2023/03/17 01:24:03;;;;;;;10.73;5.28;;;5.80;93.80;;;;;;5089102;28;20063;-75
2023/03/17 01:26:28;;;;;;;9.63;3.47;;;5.80;93.70;;;;;;5091592;28;20036;-76
2023/03/17 01:28:54;;;;;;;7.30;3.20;;;5.70;94.00;;;;;;5087569;28;20081;-76
2023/03/17 01:31:21;;;;;;;8.00;3.90;;;5.40;94.50;;;;;;5089030;28;20520;-76
2023/03/17 01:33:47;;;;;;;7.18;3.15;;;5.20;94.90;;;;;;5094510;28;20423;-76
2023/03/17 01:36:14;;;;;;;11.07;4.05;;;5.10;94.90;;;;;;5087647;28;20169;-76
2023/03/17 01:38:40;;;;;;;7.90;3.78;;;5.20;94.80;;;;;;5088049;28;20123;-75
2023/03/17 01:41:06;;;;;;;9.18;3.92;;;5.30;94.90;;;;;;5090782;28;20731;-76
2023/03/17 01:43:32;;;;;;;7.85;3.63;;;5.50;94.50;;;;;;5090146;28;20032;-76
2023/03/17 01:46:19;;;;;;;8.75;3.75;;;5.30;94.70;;;;;;5097318;28;20036;-76
2023/03/17 01:49:14;;;;;;;8.25;3.60;;;5.20;95.00;;;;;;5099537;28;20068;-76
2023/03/17 01:51:54;;;;;;;6.40;3.97;;;5.10;95.30;;;;;;5095506;28;20141;-75
2023/03/17 01:54:47;;;;;;;9.75;3.50;;;5.20;95.20;;;;;;5091959;28;20024;-75
2023/03/17 01:57:27;;;;;;;6.28;4.15;;;5.20;95.30;;;;;;5092613;28;20115;-76
2023/03/17 02:00:07;;;;;;;10.05;4.22;;;5.10;95.40;;;;;;5091966;28;20032;-75
2023/03/17 02:02:39;;;;;;;8.43;4.07;;;5.00;95.80;;;;;;5092604;28;20023;-75
2023/03/17 02:05:08;;;;;;;7.82;4.20;;;5.00;95.60;;;;;;5095417;28;20050;-75
2023/03/17 02:07:34;;;;;;;10.05;3.90;;;5.20;95.30;;;;;;5094412;28;20386;-76
2023/03/17 02:10:03;;;;;;;6.50;3.45;;;5.30;95.00;;;;;;5090249;28;20031;-75
2023/03/17 02:12:29;;;;;;;8.57;3.63;;;5.40;94.80;;;;;;5104482;28;20034;-75
2023/03/17 02:14:56;;;;;;;7.95;3.38;;;5.50;94.60;;;;;;5093582;28;20027;-75
2023/03/17 02:17:26;;;;;;;6.63;3.38;;;5.50;94.80;;;;;;5092417;28;20020;-76
2023/03/17 02:19:53;;;;;;;7.93;4.13;;;5.40;95.00;;;;;;5091036;28;20103;-75
2023/03/17 02:22:19;;;;;;;7.00;4.25;;;5.30;95.00;;;;;;5100518;28;20036;-76
2023/03/17 02:24:51;;;;;;;8.45;4.03;;;5.30;95.30;;;;;;5096330;28;20545;-76
2023/03/17 02:27:30;;;;;;;9.15;4.75;;;5.30;95.00;;;;;;5093921;28;20040;-77
2023/03/17 02:29:56;;;;;;;8.85;5.25;;;5.30;95.20;;;;;;5090659;28;20040;-76
2023/03/17 02:32:22;;;;;;;7.22;3.80;;;5.30;95.20;;;;;;5098525;28;20042;-76
2023/03/17 02:34:48;;;;;;;8.05;3.90;;;5.20;95.20;;;;;;5098991;28;20154;-76
2023/03/17 02:37:16;;;;;;;9.60;3.80;;;5.20;95.30;;;;;;5093305;28;20038;-76
2023/03/17 02:39:41;;;;;;;9.75;4.47;;;5.10;95.60;;;;;;5101700;28;20036;-76
2023/03/17 02:42:08;;;;;;;10.77;3.67;;;5.20;95.30;;;;;;5090765;28;20680;-76
2023/03/17 02:44:34;;;;;;;8.07;4.65;;;5.20;95.40;;;;;;5091704;28;20027;-76
2023/03/17 02:47:00;;;;;;;8.38;4.72;;;4.90;96.10;;;;;;5093555;28;20149;-76
2023/03/17 02:49:26;;;;;;;8.38;4.28;;;5.10;95.80;;;;;;5093834;28;20024;-76
2023/03/17 02:51:52;;;;;;;8.32;3.95;;;5.10;95.80;;;;;;5089851;28;20071;-76
2023/03/17 02:54:18;;;;;;;9.95;4.10;;;5.10;95.80;;;;;;5097414;27;20059;-75
2023/03/17 02:56:44;;;;;;;8.48;4.25;;;5.10;95.80;;;;;;5098272;28;20438;-76
2023/03/17 02:59:10;;;;;;;8.60;4.68;;;5.20;95.50;;;;;;5089600;28;20038;-76
2023/03/17 03:01:38;;;;;;;10.10;4.88;;;5.20;95.50;;;;;;5093775;28;20478;-77
2023/03/17 03:04:04;;;;;;;8.13;3.83;;;5.20;95.50;;;;;;5090659;28;20024;-76
2023/03/17 03:06:30;;;;;;;12.48;4.45;;;5.20;95.80;;;;;;5096592;28;20512;-76
2023/03/17 03:08:56;;;;;;;9.30;4.70;;;5.00;96.00;;;;;;5097795;28;20040;-76
2023/03/17 03:11:22;;;;;;;11.73;5.63;;;4.80;96.40;;;;;;5096998;28;20078;-77
2023/03/17 03:13:47;;;;;;;12.45;5.65;;;4.90;96.50;;;;;;5090847;28;20063;-76
2023/03/17 03:16:13;;;;;;;8.70;4.35;;;4.80;96.40;;;;;;5089153;28;20513;-76
2023/03/17 03:18:39;;;;;;;10.65;4.70;;;4.80;96.60;;;;;;5091179;28;20024;-76
2023/03/17 03:21:06;;;;;;;9.95;4.38;;;4.80;96.40;;;;;;5091315;28;20039;-76
2023/03/17 03:23:31;;;;;;;8.18;4.80;;;4.90;96.50;;;;;;5088273;28;20115;-76
2023/03/17 03:25:57;;;;;;;11.15;4.97;;;4.80;96.30;;;;;;5092866;28;20114;-76
2023/03/17 03:28:23;;;;;;;11.68;5.75;;;4.90;96.50;;;;;;5096453;28;20481;-76
2023/03/17 03:30:49;;;;;;;10.75;5.05;;;4.80;96.30;;;;;;5091342;28;20036;-76
2023/03/17 03:33:15;;;;;;;12.32;5.47;;;4.90;96.30;;;;;;5095910;28;20498;-76
2023/03/17 03:35:41;;;;;;;8.98;4.93;;;5.00;96.00;;;;;;5096506;28;20039;-76
2023/03/17 03:38:07;;;;;;;9.05;4.80;;;5.10;95.80;;;;;;5090186;28;20114;-76
2023/03/17 03:40:34;;;;;;;9.85;4.80;;;5.00;96.00;;;;;;5090766;28;20131;-76
2023/03/17 03:43:00;;;;;;;11.27;5.05;;;4.80;96.20;;;;;;5091414;28;20059;-76
2023/03/17 03:45:26;;;;;;;8.55;4.28;;;4.70;96.40;;;;;;5089468;28;20035;-76
2023/03/17 03:47:52;;;;;;;8.40;4.32;;;4.60;96.60;;;;;;5093193;28;20048;-76
2023/03/17 03:50:18;;;;;;;11.63;4.78;;;4.30;97.10;;;;;;5087621;28;20101;-76
2023/03/17 03:52:43;;;;;;;8.55;4.38;;;4.10;97.50;;;;;;5089436;28;20077;-76
2023/03/17 03:55:10;;;;;;;8.30;4.60;;;4.10;97.70;;;;;;5092617;28;20034;-76
2023/03/17 03:57:36;;;;;;;9.27;4.72;;;4.00;98.00;;;;;;5088750;28;20024;-76
2023/03/17 04:00:03;;;;;;;9.20;5.10;;;4.10;98.10;;;;;;5090843;28;21553;-76
2023/03/17 04:02:30;;;;;;;15.57;4.95;;;4.20;98.00;;;;;;5088804;28;20074;-75
2023/03/17 04:04:56;;;;;;;9.30;4.70;;;4.10;98.10;;;;;;5087199;28;20352;-74
2023/03/17 04:07:22;;;;;;;8.27;4.75;;;4.20;97.80;;;;;;5082797;28;20036;-74
2023/03/17 04:09:48;;;;;;;12.23;5.43;;;4.30;97.70;;;;;;5083137;28;20036;-75
2023/03/17 04:12:15;;;;;;;11.27;5.00;;;4.20;97.90;;;;;;5084913;28;20028;-75
2023/03/17 04:14:41;;;;;;;8.93;5.43;;;4.20;98.00;;;;;;5083235;28;20028;-75
2023/03/17 04:17:08;;;;;;;12.02;5.00;;;4.00;98.60;;;;;;5082143;28;20493;-75
2023/03/17 04:19:33;;;;;;;9.95;4.50;;;3.90;98.50;;;;;;5081636;28;20024;-75
2023/03/17 04:22:00;;;;;;;8.10;5.03;;;4.00;98.40;;;;;;5082576;28;20093;-75
2023/03/17 04:24:26;;;;;;;8.20;4.60;;;3.90;98.20;;;;;;5083907;28;20028;-75
2023/03/17 04:26:52;;;;;;;10.85;5.38;;;4.10;98.00;;;;;;5084889;28;20028;-75
2023/03/17 04:29:19;;;;;;;10.70;4.60;;;4.00;98.20;;;;;;5087800;28;20035;-74
2023/03/17 04:31:45;;;;;;;13.70;6.13;;;4.00;98.40;;;;;;5082378;28;20094;-74
2023/03/17 04:34:15;;;;;;;12.40;5.15;;;4.00;98.20;;;;;;5086932;28;20032;-75
2023/03/17 04:36:42;;;;;;;11.07;4.93;;;4.10;98.20;;;;;;5086515;28;20028;-74
2023/03/17 04:39:08;;;;;;;10.02;5.03;;;4.00;98.30;;;;;;5086676;28;20056;-75
2023/03/17 04:41:34;;;;;;;10.50;4.68;;;4.10;98.40;;;;;;5083459;28;20485;-75
2023/03/17 04:44:00;;;;;;;9.55;5.05;;;4.20;98.20;;;;;;5090151;28;20492;-75
2023/03/17 04:46:26;;;;;;;10.60;4.53;;;4.20;97.90;;;;;;5088674;28;20428;-77
2023/03/17 04:48:52;;;;;;;11.20;4.63;;;4.10;98.00;;;;;;5090353;28;20032;-75
2023/03/17 04:51:18;;;;;;;7.68;4.30;;;4.00;98.20;;;;;;5086287;28;20107;-74
2023/03/17 04:53:43;;;;;;;12.55;5.20;;;4.10;98.10;;;;;;5084809;28;20189;-75
2023/03/17 04:56:10;;;;;;;9.00;4.60;;;4.10;98.10;;;;;;5085910;28;20060;-77
2023/03/17 04:58:36;;;;;;;8.77;4.88;;;4.00;98.10;;;;;;5087300;28;20035;-77
2023/03/17 05:01:02;;;;;;;9.90;5.55;;;3.90;98.40;;;;;;5086031;28;20118;-77
2023/03/17 05:03:29;;;;;;;13.30;5.95;;;3.80;98.70;;;;;;5085270;28;20525;-77
2023/03/17 05:05:56;;;;;;;10.30;5.50;;;3.60;99.10;;;;;;5084681;28;20032;-77
2023/03/17 05:08:22;;;;;;;9.02;4.88;;;3.60;99.20;;;;;;5085519;28;20123;-77
2023/03/17 05:10:48;;;;;;;9.18;5.32;;;3.50;99.50;;;;;;5084530;28;20036;-77
2023/03/17 05:13:14;;;;;;;7.75;4.55;;;3.50;99.70;;;;;;5084105;28;20039;-76
2023/03/17 05:15:46;;;;;;;10.40;5.00;;;3.50;99.70;;;;;;5083802;28;20032;-76
2023/03/17 05:18:11;;;;;;;9.02;4.43;;;3.50;99.90;;;;;;5085357;28;20032;-75
2023/03/17 05:20:37;;;;;;;9.82;4.82;;;3.40;99.90;;;;;;5090406;28;20673;-75
2023/03/17 05:23:03;;;;;;;10.60;5.53;;;3.50;99.90;;;;;;5091709;28;20092;-76
2023/03/17 05:25:28;;;;;;;10.00;4.68;;;3.60;99.90;;;;;;5086931;28;20035;-75
2023/03/17 05:27:54;;;;;;;9.60;4.95;;;3.90;99.30;;;;;;5085922;28;20482;-76
2023/03/17 05:30:20;;;;;;;9.50;5.05;;;3.80;99.50;;;;;;5089499;28;20044;-76
2023/03/17 05:32:45;;;;;;;11.23;4.88;;;3.80;99.50;;;;;;5088360;28;20031;-76
2023/03/17 05:35:11;;;;;;;10.27;5.00;;;3.70;99.50;;;;;;5088638;28;20484;-75
2023/03/17 05:37:37;;;;;;;9.23;4.78;;;3.60;99.80;;;;;;5089185;28;20043;-75
2023/03/17 05:40:03;;;;;;;8.98;4.72;;;3.60;99.80;;;;;;5087541;28;20409;-76
2023/03/17 05:42:29;;;;;;;10.52;5.03;;;3.60;99.60;;;;;;5086495;28;20371;-76
2023/03/17 05:44:55;;;;;;;10.85;5.13;;;3.60;99.70;;;;;;5090528;28;20040;-76
2023/03/17 05:47:21;;;;;;;10.30;5.32;;;3.60;99.70;;;;;;5093629;28;20032;-76
2023/03/17 05:49:47;;;;;;;9.70;5.47;;;3.70;99.70;;;;;;5086764;28;20031;-76
2023/03/17 05:52:13;;;;;;;7.95;4.75;;;3.90;99.30;;;;;;5091372;28;20031;-75
2023/03/17 05:54:39;;;;;;;10.10;6.15;;;3.70;99.50;;;;;;5086992;28;20039;-76
2023/03/17 05:57:05;;;;;;;9.35;5.03;;;3.70;99.90;;;;;;5088721;28;20028;-75
2023/03/17 05:59:30;;;;;;;16.35;6.15;;;3.70;99.90;;;;;;5089037;28;20040;-76
2023/03/17 06:01:56;;;;;;;10.52;5.85;;;3.70;99.90;;;;;;5087301;28;20064;-75
2023/03/17 06:04:22;;;;;;;11.45;5.05;;;3.70;99.90;;;;;;5086401;28;20054;-75
2023/03/17 06:06:47;;;;;;;10.82;5.40;;;3.60;99.90;;;;;;5087480;28;20127;-75
2023/03/17 06:09:13;;;;;;;10.68;5.28;;;3.80;99.90;;;;;;5086053;28;20143;-75
2023/03/17 06:11:40;;;;;;;11.75;5.45;;;3.90;99.60;;;;;;5089924;28;20032;-75
2023/03/17 06:14:06;;;;;;;10.13;5.53;;;4.10;99.40;;;;;;5087330;28;20032;-75
2023/03/17 06:16:32;;;;;;;9.75;5.15;;;4.10;99.50;;;;;;5088046;28;20531;-75
2023/03/17 06:18:58;;;;;;;8.57;4.50;;;4.20;99.40;;;;;;5086133;28;20059;-75
2023/03/17 06:21:24;;;;;;;9.05;5.25;;;4.10;99.30;;;;;;5095559;28;20410;-76
2023/03/17 06:23:50;;;;;;;12.27;5.72;;;4.00;99.50;;;;;;5100808;28;20035;-76
2023/03/17 06:26:16;;;;;;;8.55;4.75;;;4.10;99.50;;;;;;5085319;28;20043;-76
2023/03/17 06:28:41;;;;;;;9.63;4.53;;;4.10;99.40;;;;;;5094618;28;20063;-76
2023/03/17 06:31:07;;;;;;;9.40;5.53;;;4.00;99.60;;;;;;5084868;28;20513;-76
2023/03/17 06:33:34;;;;;;;9.60;5.20;;;4.00;99.90;;;;;;5092298;28;20020;-76
2023/03/17 06:36:00;;;;;;;10.48;5.03;;;4.10;99.60;;;;;;5087545;28;20490;-76
2023/03/17 06:38:26;;;;;;;13.30;4.82;;;4.10;99.70;;;;;;5085683;28;20466;-76
2023/03/17 06:40:52;;;;;;;9.82;4.45;;;4.20;99.50;;;;;;5086466;28;20047;-76
2023/03/17 06:43:18;;;;;;;8.07;4.75;;;4.30;99.40;;;;;;5083476;28;20036;-77
2023/03/17 06:45:45;;;;;;;8.32;4.35;;;4.30;99.60;;;;;;5087061;28;20024;-76
2023/03/17 06:48:11;;;;;;;9.55;3.80;;;4.30;99.30;;;;;;5087496;28;20056;-76
2023/03/17 06:50:37;;;;;;;10.43;5.50;;;4.20;99.30;;;;;;5084025;28;20781;-77
2023/03/17 06:53:03;;;;;;;8.27;4.15;;;4.30;99.60;;;;;;5082032;28;20031;-75
2023/03/17 06:55:29;;;;;;;8.77;4.93;;;4.30;99.60;;;;;;5089287;28;20347;-81
2023/03/17 06:57:55;;;;;;;7.65;4.28;;;4.30;99.40;;;;;;5087980;28;20031;-78
2023/03/17 07:00:21;;;;;;;12.95;4.55;;;4.40;99.40;;;;;;5087393;28;20149;-78
2023/03/17 07:02:48;;;;;;;8.45;4.40;;;4.40;99.20;;;;;;5095524;28;20443;-79
2023/03/17 07:05:14;;;;;;;8.48;4.72;;;4.50;99.40;;;;;;5084251;28;20062;-78
2023/03/17 07:07:40;;;;;;;8.07;4.65;;;4.50;99.50;;;;;;5090601;28;20123;-80
2023/03/17 07:10:09;;;;;;;7.20;4.22;;;4.60;99.70;;;;;;5088411;28;20039;-78
2023/03/17 07:12:35;;;;;;;8.25;4.07;;;4.60;99.50;;;;;;5086635;28;20024;-79
2023/03/17 07:15:02;;;;;;;9.57;4.22;;;4.70;99.30;;;;;;5084972;28;20031;-81
2023/03/17 07:17:28;;;;;;;7.63;4.40;;;4.70;99.30;;;;;;5083889;28;20039;-81
2023/03/17 07:19:54;;;;;;;7.63;4.13;;;4.70;98.90;;;;;;5094021;28;20032;-78
2023/03/17 07:22:21;;;;;;;7.78;3.70;;;4.80;98.80;;;;;;5092905;28;20031;-79
2023/03/17 07:24:47;;;;;;;8.07;3.35;;;4.80;98.90;;;;;;5089879;28;20634;-79
2023/03/17 07:27:15;;;;;;;7.13;3.97;;;4.90;98.80;;;;;;5086456;28;20054;-79
2023/03/17 07:29:40;;;;;;;7.38;4.38;;;5.00;98.40;;;;;;5092313;28;20599;-79
2023/03/17 07:32:07;;;;;;;7.82;4.32;;;5.10;98.60;;;;;;5086822;28;20026;-79
2023/03/17 07:34:33;;;;;;;7.88;4.07;;;5.10;98.60;;;;;;5082721;28;20020;-79
2023/03/17 07:36:59;;;;;;;8.77;4.05;;;5.10;98.60;;;;;;5089045;28;20165;-79
2023/03/17 07:39:24;;;;;;;10.32;4.38;;;5.20;98.30;;;;;;5088851;28;20055;-79
2023/03/17 07:41:54;;;;;;;12.80;4.50;;;5.20;98.40;;;;;;5086052;28;20027;-78
2023/03/17 07:44:21;;;;;;;13.13;5.18;;;5.20;98.40;;;;;;5089321;28;20035;-77
2023/03/17 07:46:47;;;;;;;8.00;4.50;;;5.20;98.10;;;;;;5086415;28;20085;-80
2023/03/17 07:49:13;;;;;;;8.45;3.90;;;5.30;98.00;;;;;;5085719;28;20080;-80
2023/03/17 07:51:42;;;;;;;7.35;4.10;;;5.30;97.70;;;;;;5087889;27;20032;-77
2023/03/17 07:54:09;;;;;;;8.13;4.00;;;5.40;97.90;;;;;;5084513;28;20072;-76
2023/03/17 07:56:35;;;;;;;8.00;4.32;;;5.50;97.70;;;;;;5083569;28;20024;-77
2023/03/17 07:59:01;;;;;;;8.77;4.72;;;5.50;97.50;;;;;;5094997;28;20032;-77
2023/03/17 08:01:27;;;;;;;8.98;3.85;;;5.60;97.60;;;;;;5085223;28;20032;-76
2023/03/17 08:03:53;;;;;;;10.05;4.38;;;5.50;97.50;;;;;;5086090;28;20088;-77
2023/03/17 08:06:20;;;;;;;7.97;4.15;;;5.60;97.30;;;;;;5087803;28;20031;-77
2023/03/17 08:08:46;;;;;;;11.07;4.10;;;5.70;97.50;;;;;;5104842;28;20597;-77
2023/03/17 08:11:12;;;;;;;9.85;4.10;;;5.80;97.20;;;;;;5086138;28;20044;-79
2023/03/17 08:13:38;;;;;;;10.23;4.40;;;6.00;97.30;;;;;;5101762;28;20030;-78
2023/03/17 08:16:04;;;;;;;9.48;4.38;;;6.00;96.90;;;;;;5103854;28;20589;-78
2023/03/17 08:18:30;;;;;;;10.30;4.32;;;6.10;96.90;;;;;;5091006;28;20113;-78
2023/03/17 08:20:56;;;;;;;8.00;4.28;;;6.10;97.50;;;;;;5086986;28;20057;-79
2023/03/17 08:23:22;;;;;;;8.18;3.78;;;6.10;97.00;;;;;;5090138;28;20039;-79
2023/03/17 08:25:47;;;;;;;7.63;3.80;;;6.00;97.00;;;;;;5104418;28;20546;-78
2023/03/17 08:28:14;;;;;;;8.05;3.75;;;6.00;97.40;;;;;;5100046;28;20023;-79
2023/03/17 08:30:41;;;;;;;8.07;4.20;;;6.10;97.60;;;;;;5093424;28;20115;-78
2023/03/17 08:33:07;;;;;;;10.25;4.53;;;6.20;97.50;;;;;;5084157;28;20024;-78
2023/03/17 08:35:34;;;;;;;7.47;3.78;;;6.30;97.10;;;;;;5090387;28;20585;-76
2023/03/17 08:38:01;;;;;;;8.07;4.55;;;6.40;97.00;;;;;;5081621;28;20491;-78
2023/03/17 08:40:27;;;;;;;16.50;4.90;;;6.40;96.80;;;;;;5093895;28;20296;-78
2023/03/17 08:42:52;;;;;;;11.00;4.53;;;6.50;96.70;;;;;;5092711;28;20028;-78
2023/03/17 08:45:18;;;;;;;13.95;5.25;;;6.50;96.70;;;;;;5103412;28;20069;-76
2023/03/17 08:47:46;;;;;;;13.98;5.60;;;6.60;97.20;;;;;;5093306;28;20020;-77
2023/03/17 08:50:19;;;;;;;9.10;4.88;;;6.70;96.60;;;;;;5084072;28;20075;-77
2023/03/17 08:52:45;;;;;;;10.18;4.40;;;6.70;96.10;;;;;;5082647;28;20028;-77
2023/03/17 08:55:12;;;;;;;8.95;4.70;;;6.80;96.10;;;;;;5098026;28;20043;-76
2023/03/17 08:57:38;;;;;;;17.88;6.18;;;6.90;96.20;;;;;;5085891;28;20027;-77
2023/03/17 09:00:09;;;;;;;14.93;4.65;;;7.00;95.80;;;;;;5091671;28;20494;-78
2023/03/17 09:02:41;;;;;;;11.35;4.90;;;7.10;96.10;;;;;;5091802;28;20089;-77
2023/03/17 09:05:10;;;;;;;8.25;5.05;;;7.30;96.30;;;;;;5093996;28;20455;-77
2023/03/17 09:07:36;;;;;;;9.15;4.40;;;7.40;96.10;;;;;;5090549;28;20059;-77
2023/03/17 09:10:02;;;;;;;10.73;4.63;;;7.30;95.80;;;;;;5089262;28;20063;-80
2023/03/17 09:12:28;;;;;;;7.28;4.50;;;7.50;95.90;;;;;;5095906;28;20028;-78
2023/03/17 09:14:55;;;;;;;10.88;4.75;;;7.60;95.80;;;;;;5102132;28;20114;-78
2023/03/17 09:17:21;;;;;;;12.40;4.88;;;7.60;95.60;;;;;;5093229;28;20035;-77
2023/03/17 09:19:47;;;;;;;6.60;4.20;;;7.60;95.20;;;;;;5089653;28;20229;-77
2023/03/17 09:22:15;;;;;;;11.55;4.90;;;7.70;95.80;;;;;;5089538;28;20660;-78
2023/03/17 09:24:41;;;;;;;11.25;5.57;;;7.80;95.60;;;;;;5100174;28;20672;-77
2023/03/17 09:27:07;;;;;;;12.55;5.53;;;7.90;95.40;;;;;;5089443;28;20548;-78
2023/03/17 09:29:32;;;;;;;10.65;5.45;;;8.00;94.40;;;;;;5091844;28;20031;-78
2023/03/17 09:31:59;;;;;;;10.48;4.90;;;8.10;94.90;;;;;;5098623;28;20047;-78
2023/03/17 09:34:25;;;;;;;11.90;5.03;;;8.10;94.60;;;;;;5093751;28;20047;-78
2023/03/17 09:36:52;;;;;;;9.80;4.88;;;8.30;94.60;;;;;;5100818;28;20032;-78
2023/03/17 09:39:21;;;;;;;9.02;4.78;;;8.70;94.00;;;;;;5083031;28;20048;-78
2023/03/17 09:41:56;;;;;;;8.07;4.97;;;9.10;94.10;;;;;;5086676;28;20027;-78
2023/03/17 09:44:30;;;;;;;8.20;4.55;;;9.50;93.30;;;;;;5081838;28;20358;-78
2023/03/17 09:47:08;;;;;;;10.98;5.60;;;9.40;93.30;;;;;;5094356;28;20106;-78
2023/03/17 09:49:51;;;;;;;7.90;4.75;;;9.40;93.00;;;;;;5101697;28;20431;-77
2023/03/17 09:52:27;;;;;;;11.45;5.63;;;9.60;92.80;;;;;;5084633;28;20448;-78
2023/03/17 09:54:53;;;;;;;11.40;5.75;;;9.80;92.20;;;;;;5096659;28;20028;-78
2023/03/17 09:57:34;;;;;;;17.08;6.30;;;9.80;92.70;;;;;;5083580;28;20074;-78
2023/03/17 10:00:27;;;;;;;11.43;5.05;;;9.70;92.70;;;;;;5084682;28;20038;-77
2023/03/17 10:02:55;;;;;;;9.50;5.47;;;9.80;92.80;;;;;;5087987;28;20034;-78
2023/03/17 10:05:24;;;;;;;12.32;5.82;;;9.90;92.00;;;;;;5093412;28;20028;-78
2023/03/17 10:08:11;;;;;;;12.55;5.97;;;9.70;91.70;;;;;;5096793;28;20027;-78
2023/03/17 10:10:45;;;;;;;16.27;6.32;;;9.60;92.10;;;;;;5096411;28;20031;-76
2023/03/17 10:13:38;;;;;;;12.70;7.13;;;9.70;92.30;;;;;;5090374;28;20024;-78
2023/03/17 10:16:13;;;;;;;10.43;5.55;;;9.90;92.30;;;;;;5097279;28;20027;-77
2023/03/17 10:18:53;;;;;;;10.77;6.00;;;9.80;91.70;;;;;;5091910;28;20024;-77
2023/03/17 10:21:25;;;;;;;14.18;6.28;;;9.80;91.80;;;;;;5092721;28;20035;-77
2023/03/17 10:23:53;;;;;;;14.40;7.30;;;10.00;91.60;;;;;;5104236;28;20035;-78
2023/03/17 10:26:39;;;;;;;11.25;6.43;;;9.90;91.20;;;;;;5098447;28;20035;-79
2023/03/17 10:29:14;;;;;;;12.43;6.80;;;9.90;91.80;;;;;;5093907;28;20028;-80
2023/03/17 10:31:40;;;;;;;14.30;7.25;;;10.10;91.60;;;;;;5103578;28;20051;-79
2023/03/17 10:34:12;;;;;;;12.90;6.55;;;10.20;91.40;;;;;;5096696;28;20028;-78
2023/03/17 10:36:41;;;;;;;12.50;7.50;;;10.40;91.30;;;;;;5110297;28;20122;-79
2023/03/17 10:39:11;;;;;;;11.48;6.95;;;10.50;90.80;;;;;;5109331;27;20071;-78
2023/03/17 10:41:47;;;;;;;11.07;6.65;;;10.30;90.30;;;;;;5088056;28;20043;-78
2023/03/17 10:44:37;;;;;;;15.07;7.00;;;10.90;93.80;;;;;;5087344;28;20024;-76
2023/03/17 10:47:03;;;;;;;13.52;6.85;;;11.40;90.20;;;;;;5090972;28;20065;-77
2023/03/17 10:49:35;;;;;;;13.43;6.80;;;10.90;89.50;;;;;;5092899;28;20123;-77
2023/03/17 10:52:06;;;;;;;12.30;7.15;;;10.90;90.00;;;;;;5086918;28;20040;-77
2023/03/17 10:54:35;;;;;;;13.07;7.55;;;11.00;90.20;;;;;;5094042;28;20028;-77
2023/03/17 10:57:05;;;;;;;13.50;7.20;;;11.30;90.50;;;;;;5086919;28;20743;-77
2023/03/17 10:59:40;;;;;;;15.38;7.45;;;11.20;89.70;;;;;;5089773;28;20028;-77
2023/03/17 11:02:29;;;;;;;14.65;7.40;;;11.00;88.80;;;;;;5089808;28;20420;-77
2023/03/17 11:05:08;;;;;;;12.85;7.03;;;11.30;89.50;;;;;;5094141;28;20039;-78
2023/03/17 11:07:39;;;;;;;11.30;6.70;;;11.40;89.50;;;;;;5087408;28;20030;-78
2023/03/17 11:10:19;;;;;;;11.68;6.40;;;11.50;89.90;;;;;;5091694;28;20172;-77
2023/03/17 11:12:49;;;;;;;11.98;7.43;;;11.70;89.60;;;;;;5092125;28;20074;-76
2023/03/17 11:15:16;;;;;;;13.20;7.63;;;11.70;88.50;;;;;;5091546;28;20054;-79
2023/03/17 11:17:51;;;;;;;13.85;7.28;;;11.80;90.30;;;;;;5087780;28;20081;-78
2023/03/17 11:20:43;;;;;;;17.80;7.95;;;11.70;88.90;;;;;;5085890;28;20090;-78
2023/03/17 11:23:28;;;;;;;13.18;7.15;;;11.80;88.30;;;;;;5095451;28;20032;-81
2023/03/17 11:26:25;;;;;;;12.90;7.25;;;12.20;90.10;;;;;;5082781;28;20127;-79
2023/03/17 11:29:14;;;;;;;14.82;8.07;;;12.30;88.10;;;;;;5099966;28;20432;-79
2023/03/17 11:31:50;;;;;;;13.88;7.35;;;12.30;87.50;;;;;;5105700;28;20039;-79
2023/03/17 11:34:34;;;;;;;14.60;8.02;;;12.20;88.00;;;;;;5088435;28;20032;-79
2023/03/17 11:37:26;;;;;;;12.13;7.45;;;12.20;87.60;;;;;;5102329;28;20089;-80
2023/03/17 11:39:51;;;;;;;12.90;7.07;;;12.20;87.40;;;;;;5094928;28;20095;-81
2023/03/17 11:42:33;;;;;;;13.70;8.18;;;12.30;86.40;;;;;;5105044;28;20481;-81
2023/03/17 11:44:59;;;;;;;12.65;7.18;;;12.60;86.90;;;;;;5099831;28;20032;-81
2023/03/17 11:47:51;;;;;;;11.55;6.75;;;12.60;85.00;;;;;;5105112;28;20118;-81
2023/03/17 11:50:31;;;;;;;11.38;6.45;;;12.60;85.10;;;;;;5100841;28;20177;-80
2023/03/17 11:53:31;;;;;;;13.60;7.47;;;12.70;86.90;;;;;;5109606;28;20027;-81
2023/03/17 11:56:05;;;;;;;10.85;6.50;;;12.80;86.70;;;;;;5084252;28;20135;-81
2023/03/17 11:58:55;;;;;;;10.98;7.10;;;12.70;84.90;;;;;;5105480;28;20028;-81
2023/03/17 12:01:26;;;;;;;11.20;7.18;;;12.70;85.30;;;;;;5090769;28;20071;-81
2023/03/17 12:04:09;;;;;;;11.60;7.15;;;12.80;85.60;;;;;;5094703;28;20435;-81
2023/03/17 12:06:43;;;;;;;13.57;8.52;;;13.10;85.50;;;;;;5087420;28;20040;-80
2023/03/17 12:09:26;;;;;;;11.88;7.55;;;13.10;85.50;;;;;;5089160;28;20078;-81
2023/03/17 12:11:54;;;;;;;11.63;7.13;;;13.20;86.90;;;;;;5091240;28;20510;-82
2023/03/17 12:14:41;;;;;;;12.57;7.40;;;13.10;86.20;;;;;;5106383;28;20042;-81
2023/03/17 12:17:36;;;;;;;12.90;7.35;;;13.40;86.50;;;;;;5096746;28;20144;-81
2023/03/17 12:20:08;;;;;;;12.50;7.15;;;13.30;84.10;;;;;;5103090;28;20413;-81
2023/03/17 12:22:51;;;;;;;14.35;7.47;;;13.30;83.90;;;;;;5089357;28;20036;-81
2023/03/17 12:25:31;;;;;;;12.98;7.28;;;13.50;83.60;;;;;;5099934;28;20032;-80
2023/03/17 12:28:07;;;;;;;12.68;7.60;;;13.70;84.00;;;;;;5088848;28;20020;-81
2023/03/17 12:30:54;;;;;;;14.05;7.57;;;13.80;83.20;;;;;;5086517;28;20035;-80
2023/03/17 12:33:46;;;;;;;14.43;6.93;;;13.50;83.30;;;;;;5091965;28;20114;-81
2023/03/17 12:36:14;;;;;;;14.80;9.15;;;13.90;84.40;;;;;;5093085;28;20030;-81
2023/03/17 12:38:51;;;;;;;12.68;8.43;;;14.10;83.60;;;;;;5101557;28;20078;-80
2023/03/17 12:41:36;;;;;;;14.43;7.60;;;14.00;82.70;;;;;;5106657;28;20040;-81
2023/03/17 12:44:07;;;;;;;12.65;6.45;;;14.10;83.50;;;;;;5097768;28;20023;-80
2023/03/17 12:47:07;;;;;;;12.30;6.53;;;14.10;83.60;;;;;;5086956;28;20408;-80
2023/03/17 12:49:50;;;;;;;11.45;5.95;;;14.40;83.80;;;;;;5087258;28;20128;-80
2023/03/17 12:52:27;;;;;;;27.85;8.23;;;14.80;83.90;;;;;;5084355;28;20036;-81
2023/03/17 12:54:53;;;;;;;14.05;6.95;;;15.00;82.60;;;;;;5085805;28;20475;-80
2023/03/17 12:57:29;;;;;;;16.10;6.95;;;15.10;82.50;;;;;;5078627;28;20573;-80
2023/03/17 13:00:05;;;;;;;15.30;6.28;;;15.00;80.60;;;;;;5077409;28;20114;-80
2023/03/17 13:02:38;;;;;;;11.48;7.00;;;15.00;83.30;;;;;;5082175;28;20100;-80